sensor_id;sensor_type;location;lat;lon;timestamp;pressure;altitude;pressure_sealevel;temperature;humidity
10587;BME280;5341;47.606;7.576;2022-12-07T00:01:34;98923.91;;;6.81;69.20
10587;BME280;5341;47.606;7.576;2022-12-07T00:04:05;98928.22;;;6.82;69.21
10587;BME280;5341;47.606;7.576;2022-12-07T00:06:34;98919.41;;;6.81;69.03
10587;BME280;5341;47.606;7.576;2022-12-07T00:09:04;98924.06;;;6.79;69.00
10587;BME280;5341;47.606;7.576;2022-12-07T00:11:32;98922.25;;;6.80;69.04
10587;BME280;5341;47.606;7.576;2022-12-07T00:14:05;98911.72;;;6.78;68.93
10587;BME280;5341;47.606;7.576;2022-12-07T00:16:34;98924.06;;;6.79;69.03
10587;BME280;5341;47.606;7.576;2022-12-07T00:19:05;98923.22;;;6.79;68.86
10587;BME280;5341;47.606;7.576;2022-12-07T00:21:35;98915.38;;;6.77;68.81
10587;BME280;5341;47.606;7.576;2022-12-07T00:24:04;98918.88;;;6.78;69.23
10587;BME280;5341;47.606;7.576;2022-12-07T00:26:34;98920.56;;;6.79;69.12
10587;BME280;5341;47.606;7.576;2022-12-07T00:29:06;98917.06;;;6.78;68.92
10587;BME280;5341;47.606;7.576;2022-12-07T00:31:36;98913.56;;;6.78;69.16
10587;BME280;5341;47.606;7.576;2022-12-07T00:34:05;98913.72;;;6.76;69.24
10587;BME280;5341;47.606;7.576;2022-12-07T00:36:32;98911.88;;;6.76;68.88
10587;BME280;5341;47.606;7.576;2022-12-07T00:39:00;98916.38;;;6.76;69.09
10587;BME280;5341;47.606;7.576;2022-12-07T00:41:29;98911.06;;;6.76;68.99
10587;BME280;5341;47.606;7.576;2022-12-07T00:43:58;98908.41;;;6.76;68.86
10587;BME280;5341;47.606;7.576;2022-12-07T00:46:28;98903.91;;;6.76;69.20
10587;BME280;5341;47.606;7.576;2022-12-07T00:48:56;98911.72;;;6.78;69.13
10587;BME280;5341;47.606;7.576;2022-12-07T00:51:24;98904.75;;;6.77;69.05
10587;BME280;5341;47.606;7.576;2022-12-07T00:53:53;98899.44;;;6.77;69.04
10587;BME280;5341;47.606;7.576;2022-12-07T00:56:23;98901.25;;;6.76;68.75
10587;BME280;5341;47.606;7.576;2022-12-07T00:58:52;98899.44;;;6.77;69.05
10587;BME280;5341;47.606;7.576;2022-12-07T01:01:20;98901.25;;;6.76;68.84
10587;BME280;5341;47.606;7.576;2022-12-07T01:03:49;98892.47;;;6.76;68.84
10587;BME280;5341;47.606;7.576;2022-12-07T01:06:18;98903.09;;;6.76;69.10
10587;BME280;5341;47.606;7.576;2022-12-07T01:08:47;98906.56;;;6.76;68.98
10587;BME280;5341;47.606;7.576;2022-12-07T01:11:16;98909.22;;;6.76;68.88
10587;BME280;5341;47.606;7.576;2022-12-07T01:13:44;98902.25;;;6.75;68.96
10587;BME280;5341;47.606;7.576;2022-12-07T01:16:15;98899.75;;;6.74;69.03
10587;BME280;5341;47.606;7.576;2022-12-07T01:18:46;98898.75;;;6.75;68.88
10587;BME280;5341;47.606;7.576;2022-12-07T01:21:17;98897.09;;;6.74;68.66
10587;BME280;5341;47.606;7.576;2022-12-07T01:23:46;98898.91;;;6.73;68.83
10587;BME280;5341;47.606;7.576;2022-12-07T01:26:16;98901.56;;;6.73;68.77
10587;BME280;5341;47.606;7.576;2022-12-07T01:28:44;98908.72;;;6.73;68.95
10587;BME280;5341;47.606;7.576;2022-12-07T01:31:14;98902.56;;;6.72;68.84
10587;BME280;5341;47.606;7.576;2022-12-07T01:33:44;98910.53;;;6.72;69.01
10587;BME280;5341;47.606;7.576;2022-12-07T01:36:16;98915.03;;;6.72;68.87
10587;BME280;5341;47.606;7.576;2022-12-07T01:38:44;98908.88;;;6.71;68.86
10587;BME280;5341;47.606;7.576;2022-12-07T01:41:13;98912.38;;;6.72;69.02
10587;BME280;5341;47.606;7.576;2022-12-07T01:46:48;98912.53;;;6.70;69.01
10587;BME280;5341;47.606;7.576;2022-12-07T01:49:21;98918.66;;;6.71;68.82
10587;BME280;5341;47.606;7.576;2022-12-07T01:51:52;98912.53;;;6.70;68.93
10587;BME280;5341;47.606;7.576;2022-12-07T01:54:22;98917.84;;;6.70;69.02
10587;BME280;5341;47.606;7.576;2022-12-07T01:56:51;98917.00;;;6.70;69.09
10587;BME280;5341;47.606;7.576;2022-12-07T01:59:23;98921.47;;;6.69;68.81
10587;BME280;5341;47.606;7.576;2022-12-07T02:01:53;98918.81;;;6.69;69.29
10587;BME280;5341;47.606;7.576;2022-12-07T02:04:22;98915.34;;;6.69;69.24
10587;BME280;5341;47.606;7.576;2022-12-07T02:06:51;98909.19;;;6.68;68.93
10587;BME280;5341;47.606;7.576;2022-12-07T02:09:21;98909.19;;;6.68;68.92
10587;BME280;5341;47.606;7.576;2022-12-07T02:11:49;98905.69;;;6.68;69.26
10587;BME280;5341;47.606;7.576;2022-12-07T02:14:17;98906.53;;;6.68;69.04
10587;BME280;5341;47.606;7.576;2022-12-07T02:16:57;98909.19;;;6.68;69.26
10587;BME280;5341;47.606;7.576;2022-12-07T02:26:21;98903.31;;;6.65;69.37
10587;BME280;5341;47.606;7.576;2022-12-07T02:29:10;98894.53;;;6.64;69.09
10587;BME280;5341;47.606;7.576;2022-12-07T02:31:44;98899.00;;;6.64;68.95
10587;BME280;5341;47.606;7.576;2022-12-07T02:34:20;98899.84;;;6.64;69.07
10587;BME280;5341;47.606;7.576;2022-12-07T02:36:53;98900.00;;;6.63;69.22
10587;BME280;5341;47.606;7.576;2022-12-07T02:39:28;98900.81;;;6.63;69.29
10587;BME280;5341;47.606;7.576;2022-12-07T02:42:02;98891.19;;;6.62;69.31
10587;BME280;5341;47.606;7.576;2022-12-07T02:44:37;98886.72;;;6.63;69.10
10587;BME280;5341;47.606;7.576;2022-12-07T02:47:09;98898.31;;;6.62;69.22
10587;BME280;5341;47.606;7.576;2022-12-07T02:49:38;98894.84;;;6.61;69.21
10587;BME280;5341;47.606;7.576;2022-12-07T02:52:07;98898.31;;;6.62;69.00
10587;BME280;5341;47.606;7.576;2022-12-07T02:54:34;98893.00;;;6.62;69.18
10587;BME280;5341;47.606;7.576;2022-12-07T02:57:08;98910.63;;;6.63;69.17
10587;BME280;5341;47.606;7.576;2022-12-07T02:59:53;98908.97;;;6.62;69.11
10587;BME280;5341;47.606;7.576;2022-12-07T03:02:30;98904.63;;;6.61;69.49
10587;BME280;5341;47.606;7.576;2022-12-07T03:05:13;98900.97;;;6.62;69.26
10587;BME280;5341;47.606;7.576;2022-12-07T03:07:50;98900.31;;;6.60;69.37
10587;BME280;5341;47.606;7.576;2022-12-07T03:10:24;98899.47;;;6.59;68.89
10587;BME280;5341;47.606;7.576;2022-12-07T03:13:02;98896.81;;;6.59;69.12
10587;BME280;5341;47.606;7.576;2022-12-07T03:15:36;98901.16;;;6.60;69.27
10587;BME280;5341;47.606;7.576;2022-12-07T03:18:07;98890.66;;;6.59;69.21
10587;BME280;5341;47.606;7.576;2022-12-07T03:20:38;98898.66;;;6.59;69.52
10587;BME280;5341;47.606;7.576;2022-12-07T03:23:08;98888.84;;;6.59;69.56
10587;BME280;5341;47.606;7.576;2022-12-07T03:25:39;98889.84;;;6.58;69.47
10587;BME280;5341;47.606;7.576;2022-12-07T03:28:08;98888.19;;;6.57;69.52
10587;BME280;5341;47.606;7.576;2022-12-07T03:30:43;98889.00;;;6.58;69.33
10587;BME280;5341;47.606;7.576;2022-12-07T03:33:15;98891.66;;;6.58;69.07
10587;BME280;5341;47.606;7.576;2022-12-07T03:35:48;98888.19;;;6.57;69.49
10587;BME280;5341;47.606;7.576;2022-12-07T03:38:20;98888.34;;;6.56;69.15
10587;BME280;5341;47.606;7.576;2022-12-07T03:40:51;98887.50;;;6.55;69.76
10587;BME280;5341;47.606;7.576;2022-12-07T03:43:20;98892.81;;;6.55;69.45
10587;BME280;5341;47.606;7.576;2022-12-07T03:46:00;98895.47;;;6.55;69.91
10587;BME280;5341;47.606;7.576;2022-12-07T03:48:35;98892.94;;;6.54;69.63
10587;BME280;5341;47.606;7.576;2022-12-07T03:51:10;98891.97;;;6.55;69.77
10587;BME280;5341;47.606;7.576;2022-12-07T03:53:44;98897.28;;;6.55;69.91
10587;BME280;5341;47.606;7.576;2022-12-07T03:56:13;98895.59;;;6.54;69.41
10587;BME280;5341;47.606;7.576;2022-12-07T03:58:42;98896.47;;;6.54;69.86
10587;BME280;5341;47.606;7.576;2022-12-07T04:01:12;98893.94;;;6.53;69.82
10587;BME280;5341;47.606;7.576;2022-12-07T04:03:40;98889.59;;;6.52;69.93
10587;BME280;5341;47.606;7.576;2022-12-07T04:06:07;98888.78;;;6.51;69.93
10587;BME280;5341;47.606;7.576;2022-12-07T04:08:35;98892.25;;;6.52;69.80
10587;BME280;5341;47.606;7.576;2022-12-07T04:11:03;98893.09;;;6.52;69.60
10587;BME280;5341;47.606;7.576;2022-12-07T04:13:30;98892.25;;;6.52;69.79
10587;BME280;5341;47.606;7.576;2022-12-07T04:16:20;98881.63;;;6.52;69.87
10587;BME280;5341;47.606;7.576;2022-12-07T04:18:47;98886.94;;;6.52;70.05
10587;BME280;5341;47.606;7.576;2022-12-07T04:21:15;98886.13;;;6.51;69.75
10587;BME280;5341;47.606;7.576;2022-12-07T04:23:43;98877.16;;;6.52;70.10
10587;BME280;5341;47.606;7.576;2022-12-07T04:26:10;98882.47;;;6.52;69.86
10587;BME280;5341;47.606;7.576;2022-12-07T04:28:38;98877.16;;;6.52;69.74
10587;BME280;5341;47.606;7.576;2022-12-07T04:31:06;98881.63;;;6.52;69.72
10587;BME280;5341;47.606;7.576;2022-12-07T04:33:35;98872.00;;;6.51;70.01
10587;BME280;5341;47.606;7.576;2022-12-07T04:36:04;98861.53;;;6.49;69.74
10587;BME280;5341;47.606;7.576;2022-12-07T04:38:31;98859.88;;;6.48;70.17
10587;BME280;5341;47.606;7.576;2022-12-07T04:41:04;98863.19;;;6.50;69.93
10587;BME280;5341;47.606;7.576;2022-12-07T04:43:32;98862.34;;;6.50;70.13
10587;BME280;5341;47.606;7.576;2022-12-07T04:46:00;98857.22;;;6.48;69.99
10587;BME280;5341;47.606;7.576;2022-12-07T04:48:28;98864.19;;;6.49;69.98
10587;BME280;5341;47.606;7.576;2022-12-07T04:50:57;98863.34;;;6.49;69.63
10587;BME280;5341;47.606;7.576;2022-12-07T04:53:25;98857.22;;;6.48;69.73
10587;BME280;5341;47.606;7.576;2022-12-07T04:55:53;98856.22;;;6.49;69.61
10587;BME280;5341;47.606;7.576;2022-12-07T04:58:21;98864.19;;;6.49;69.98
10587;BME280;5341;47.606;7.576;2022-12-07T05:00:48;98866.00;;;6.49;69.62
10587;BME280;5341;47.606;7.576;2022-12-07T05:03:16;98867.66;;;6.50;69.55
10587;BME280;5341;47.606;7.576;2022-12-07T05:05:43;98873.81;;;6.50;69.69
10587;BME280;5341;47.606;7.576;2022-12-07T05:08:12;98869.34;;;6.51;69.77
10587;BME280;5341;47.606;7.576;2022-12-07T05:10:40;98868.50;;;6.50;69.36
10587;BME280;5341;47.606;7.576;2022-12-07T05:13:08;98860.53;;;6.50;69.63
10587;BME280;5341;47.606;7.576;2022-12-07T05:15:36;98873.81;;;6.50;69.39
10587;BME280;5341;47.606;7.576;2022-12-07T05:18:03;98869.50;;;6.49;69.42
10587;BME280;5341;47.606;7.576;2022-12-07T05:20:31;98873.16;;;6.48;69.39
10587;BME280;5341;47.606;7.576;2022-12-07T05:22:59;98867.84;;;6.48;69.56
10587;BME280;5341;47.606;7.576;2022-12-07T05:25:28;98867.84;;;6.48;69.41
10587;BME280;5341;47.606;7.576;2022-12-07T05:27:56;98874.13;;;6.47;69.67
10587;BME280;5341;47.606;7.576;2022-12-07T05:30:24;98867.84;;;6.48;69.51
10587;BME280;5341;47.606;7.576;2022-12-07T05:32:52;98867.84;;;6.48;69.63
10587;BME280;5341;47.606;7.576;2022-12-07T05:35:20;98869.66;;;6.47;69.36
10587;BME280;5341;47.606;7.576;2022-12-07T05:37:48;98863.50;;;6.47;69.28
10587;BME280;5341;47.606;7.576;2022-12-07T05:40:16;98865.19;;;6.48;69.67
10587;BME280;5341;47.606;7.576;2022-12-07T05:42:46;98869.66;;;6.47;69.42
10587;BME280;5341;47.606;7.576;2022-12-07T05:45:14;98867.00;;;6.47;69.57
10587;BME280;5341;47.606;7.576;2022-12-07T05:47:41;98865.19;;;6.48;69.26
10587;BME280;5341;47.606;7.576;2022-12-07T05:50:09;98864.34;;;6.47;69.35
10587;BME280;5341;47.606;7.576;2022-12-07T05:52:37;98875.81;;;6.48;69.22
10587;BME280;5341;47.606;7.576;2022-12-07T05:55:05;98872.31;;;6.47;68.96
10587;BME280;5341;47.606;7.576;2022-12-07T05:57:34;98863.66;;;6.45;69.08
10587;BME280;5341;47.606;7.576;2022-12-07T06:00:03;98874.28;;;6.45;69.27
10587;BME280;5341;47.606;7.576;2022-12-07T06:02:38;98876.13;;;6.45;69.00
10587;BME280;5341;47.606;7.576;2022-12-07T06:05:06;98879.59;;;6.45;69.37
10587;BME280;5341;47.606;7.576;2022-12-07T06:07:34;98881.59;;;6.43;69.25
10587;BME280;5341;47.606;7.576;2022-12-07T06:10:02;98881.59;;;6.43;69.42
10587;BME280;5341;47.606;7.576;2022-12-07T06:12:30;98884.25;;;6.43;68.94
10587;BME280;5341;47.606;7.576;2022-12-07T06:15:00;98881.72;;;6.42;68.95
10587;BME280;5341;47.606;7.576;2022-12-07T06:17:29;98880.03;;;6.41;69.23
10587;BME280;5341;47.606;7.576;2022-12-07T06:19:57;98882.69;;;6.41;69.24
10587;BME280;5341;47.606;7.576;2022-12-07T06:22:25;98875.72;;;6.40;69.34
10587;BME280;5341;47.606;7.576;2022-12-07T06:24:53;98874.88;;;6.39;69.10
10587;BME280;5341;47.606;7.576;2022-12-07T06:27:21;98875.88;;;6.38;68.92
10587;BME280;5341;47.606;7.576;2022-12-07T06:29:49;98878.53;;;6.38;68.86
10587;BME280;5341;47.606;7.576;2022-12-07T06:32:17;98875.19;;;6.36;69.17
10587;BME280;5341;47.606;7.576;2022-12-07T06:34:47;98873.53;;;6.35;69.08
10587;BME280;5341;47.606;7.576;2022-12-07T06:37:14;98886.97;;;6.34;69.05
10587;BME280;5341;47.606;7.576;2022-12-07T06:39:42;98880.97;;;6.32;68.99
10587;BME280;5341;47.606;7.576;2022-12-07T06:42:10;98876.66;;;6.31;68.95
10587;BME280;5341;47.606;7.576;2022-12-07T06:44:38;98876.78;;;6.29;68.78
10587;BME280;5341;47.606;7.576;2022-12-07T06:47:06;98885.59;;;6.30;69.07
10587;BME280;5341;47.606;7.576;2022-12-07T06:49:35;98881.25;;;6.29;68.88
10587;BME280;5341;47.606;7.576;2022-12-07T06:52:04;98885.06;;;6.26;68.71
10587;BME280;5341;47.606;7.576;2022-12-07T06:54:32;98881.56;;;6.26;68.86
10587;BME280;5341;47.606;7.576;2022-12-07T06:56:59;98881.56;;;6.26;68.55
10587;BME280;5341;47.606;7.576;2022-12-07T06:59:27;98882.56;;;6.25;68.66
10587;BME280;5341;47.606;7.576;2022-12-07T07:01:55;98878.25;;;6.24;68.82
10587;BME280;5341;47.606;7.576;2022-12-07T07:04:22;98879.06;;;6.24;68.29
10587;BME280;5341;47.606;7.576;2022-12-07T07:06:50;98884.38;;;6.24;68.65
10587;BME280;5341;47.606;7.576;2022-12-07T07:09:20;98877.41;;;6.23;68.41
10587;BME280;5341;47.606;7.576;2022-12-07T07:11:48;98884.53;;;6.23;68.82
10587;BME280;5341;47.606;7.576;2022-12-07T07:14:16;98890.69;;;6.23;68.79
10587;BME280;5341;47.606;7.576;2022-12-07T07:16:46;98898.81;;;6.22;68.75
10587;BME280;5341;47.606;7.576;2022-12-07T07:19:15;98895.31;;;6.21;68.58
10587;BME280;5341;47.606;7.576;2022-12-07T07:21:43;98892.81;;;6.20;68.46
10587;BME280;5341;47.606;7.576;2022-12-07T07:24:11;98891.97;;;6.19;68.81
10587;BME280;5341;47.606;7.576;2022-12-07T07:26:42;98888.50;;;6.19;68.76
10587;BME280;5341;47.606;7.576;2022-12-07T07:29:15;98892.97;;;6.18;68.47
10587;BME280;5341;47.606;7.576;2022-12-07T07:31:43;98892.97;;;6.18;68.27
10587;BME280;5341;47.606;7.576;2022-12-07T07:34:11;98898.28;;;6.18;68.20
10587;BME280;5341;47.606;7.576;2022-12-07T07:36:41;98891.28;;;6.17;68.42
10587;BME280;5341;47.606;7.576;2022-12-07T07:39:13;98900.06;;;6.17;68.14
10587;BME280;5341;47.606;7.576;2022-12-07T07:41:43;98897.56;;;6.16;68.68
10587;BME280;5341;47.606;7.576;2022-12-07T07:44:14;98905.38;;;6.17;68.20
10587;BME280;5341;47.606;7.576;2022-12-07T07:46:41;98901.91;;;6.17;68.61
10587;BME280;5341;47.606;7.576;2022-12-07T07:49:10;98899.25;;;6.17;68.55
10587;BME280;5341;47.606;7.576;2022-12-07T07:51:40;98900.06;;;6.17;68.70
10587;BME280;5341;47.606;7.576;2022-12-07T07:54:11;98902.72;;;6.17;68.20
10587;BME280;5341;47.606;7.576;2022-12-07T07:56:40;98905.38;;;6.17;68.23
10587;BME280;5341;47.606;7.576;2022-12-07T07:59:09;98906.25;;;6.18;68.75
10587;BME280;5341;47.606;7.576;2022-12-07T08:01:37;98908.03;;;6.17;68.34
10587;BME280;5341;47.606;7.576;2022-12-07T08:04:10;98914.06;;;6.20;68.36
10587;BME280;5341;47.606;7.576;2022-12-07T08:06:41;98918.38;;;6.21;68.67
10587;BME280;5341;47.606;7.576;2022-12-07T08:09:09;98916.56;;;6.21;68.25
10587;BME280;5341;47.606;7.576;2022-12-07T08:11:36;98915.56;;;6.22;68.76
10587;BME280;5341;47.606;7.576;2022-12-07T08:14:04;98923.38;;;6.24;68.57
10587;BME280;5341;47.606;7.576;2022-12-07T08:16:34;98933.84;;;6.25;68.47
10587;BME280;5341;47.606;7.576;2022-12-07T08:19:05;98932.03;;;6.26;68.68
10587;BME280;5341;47.606;7.576;2022-12-07T08:21:35;98931.19;;;6.25;68.38
10587;BME280;5341;47.606;7.576;2022-12-07T08:24:03;98932.72;;;6.28;68.75
10587;BME280;5341;47.606;7.576;2022-12-07T08:26:33;98940.53;;;6.29;68.32
10587;BME280;5341;47.606;7.576;2022-12-07T08:29:04;98944.00;;;6.30;68.27
10587;BME280;5341;47.606;7.576;2022-12-07T08:31:31;98940.25;;;6.32;68.38
10587;BME280;5341;47.606;7.576;2022-12-07T08:34:00;98941.91;;;6.33;68.81
10587;BME280;5341;47.606;7.576;2022-12-07T08:36:28;98947.22;;;6.33;68.85
10587;BME280;5341;47.606;7.576;2022-12-07T08:38:56;98944.41;;;6.35;68.82
10587;BME280;5341;47.606;7.576;2022-12-07T08:41:23;98942.59;;;6.35;68.85
10587;BME280;5341;47.606;7.576;2022-12-07T08:43:51;98938.13;;;6.36;68.39
10587;BME280;5341;47.606;7.576;2022-12-07T08:46:21;98946.91;;;6.36;68.65
10587;BME280;5341;47.606;7.576;2022-12-07T08:48:53;98948.59;;;6.37;68.78
10587;BME280;5341;47.606;7.576;2022-12-07T08:51:24;98948.44;;;6.39;68.74
10587;BME280;5341;47.606;7.576;2022-12-07T08:53:53;98948.44;;;6.39;69.11
10587;BME280;5341;47.606;7.576;2022-12-07T08:56:21;98943.13;;;6.39;68.93
10587;BME280;5341;47.606;7.576;2022-12-07T08:58:50;98937.81;;;6.39;68.82
10587;BME280;5341;47.606;7.576;2022-12-07T09:01:24;98950.94;;;6.40;68.95
10587;BME280;5341;47.606;7.576;2022-12-07T09:03:56;98953.59;;;6.40;68.87
10587;BME280;5341;47.606;7.576;2022-12-07T09:06:26;98959.06;;;6.39;68.99
10587;BME280;5341;47.606;7.576;2022-12-07T09:08:57;98951.91;;;6.39;68.74
10587;BME280;5341;47.606;7.576;2022-12-07T09:11:26;98961.72;;;6.39;68.93
10587;BME280;5341;47.606;7.576;2022-12-07T09:13:54;98954.72;;;6.38;68.68
10587;BME280;5341;47.606;7.576;2022-12-07T09:16:21;98962.69;;;6.38;69.08
10587;BME280;5341;47.606;7.576;2022-12-07T09:18:49;98966.50;;;6.35;68.73
10587;BME280;5341;47.606;7.576;2022-12-07T09:21:18;98963.16;;;6.33;68.54
10587;BME280;5341;47.606;7.576;2022-12-07T09:23:47;98960.66;;;6.32;68.53
10587;BME280;5341;47.606;7.576;2022-12-07T09:26:21;98964.31;;;6.31;68.32
10587;BME280;5341;47.606;7.576;2022-12-07T09:28:50;98962.59;;;6.30;68.51
10587;BME280;5341;47.606;7.576;2022-12-07T09:31:18;98962.59;;;6.30;68.45
10587;BME280;5341;47.606;7.576;2022-12-07T09:33:46;98967.06;;;6.29;68.50
10587;BME280;5341;47.606;7.576;2022-12-07T09:36:14;98974.09;;;6.30;68.69
10587;BME280;5341;47.606;7.576;2022-12-07T09:38:42;98959.94;;;6.30;68.83
10587;BME280;5341;47.606;7.576;2022-12-07T09:41:11;98964.31;;;6.31;68.31
10587;BME280;5341;47.606;7.576;2022-12-07T09:43:39;98959.81;;;6.31;68.51
10587;BME280;5341;47.606;7.576;2022-12-07T09:46:11;98958.84;;;6.32;68.51
10587;BME280;5341;47.606;7.576;2022-12-07T09:48:43;98954.03;;;6.36;68.55
10587;BME280;5341;47.606;7.576;2022-12-07T09:51:15;98955.72;;;6.37;68.42
10587;BME280;5341;47.606;7.576;2022-12-07T09:53:44;98951.75;;;6.41;68.77
10587;BME280;5341;47.606;7.576;2022-12-07T09:56:15;98951.47;;;6.44;68.94
10587;BME280;5341;47.606;7.576;2022-12-07T09:58:44;98952.53;;;6.51;68.60
10587;BME280;5341;47.606;7.576;2022-12-07T10:01:13;98946.78;;;6.56;68.45
10587;BME280;5341;47.606;7.576;2022-12-07T10:03:47;98949.81;;;6.61;68.76
10587;BME280;5341;47.606;7.576;2022-12-07T10:06:16;98948.66;;;6.63;68.71
10587;BME280;5341;47.606;7.576;2022-12-07T10:08:44;98942.06;;;6.67;68.62
10587;BME280;5341;47.606;7.576;2022-12-07T10:11:14;98935.59;;;6.70;68.72
10587;BME280;5341;47.606;7.576;2022-12-07T10:13:45;98936.44;;;6.70;68.77
10587;BME280;5341;47.606;7.576;2022-12-07T10:16:37;98929.97;;;6.73;68.67
10587;BME280;5341;47.606;7.576;2022-12-07T10:19:21;98921.84;;;6.74;68.71
10587;BME280;5341;47.606;7.576;2022-12-07T10:22:05;98921.53;;;6.78;68.85
10587;BME280;5341;47.606;7.576;2022-12-07T10:24:37;98925.72;;;6.80;68.62
10587;BME280;5341;47.606;7.576;2022-12-07T10:27:25;98909.47;;;6.83;68.38
10587;BME280;5341;47.606;7.576;2022-12-07T10:29:53;98915.44;;;6.85;68.40
10587;BME280;5341;47.606;7.576;2022-12-07T10:32:32;98909.16;;;6.86;68.11
10587;BME280;5341;47.606;7.576;2022-12-07T10:35:23;98909.00;;;6.88;68.13
10587;BME280;5341;47.606;7.576;2022-12-07T10:37:54;98910.97;;;6.86;68.23
10587;BME280;5341;47.606;7.576;2022-12-07T10:40:27;98906.50;;;6.86;68.22
10587;BME280;5341;47.606;7.576;2022-12-07T10:43:18;98914.03;;;6.91;68.06
10587;BME280;5341;47.606;7.576;2022-12-07T10:46:13;98896.75;;;6.95;67.88
10587;BME280;5341;47.606;7.576;2022-12-07T10:48:57;98897.44;;;6.97;68.00
10587;BME280;5341;47.606;7.576;2022-12-07T10:51:37;98898.09;;;6.99;67.91
10587;BME280;5341;47.606;7.576;2022-12-07T10:54:12;98888.13;;;7.01;68.09
10587;BME280;5341;47.606;7.576;2022-12-07T10:57:04;98890.50;;;7.04;68.02
10587;BME280;5341;47.606;7.576;2022-12-07T11:00:01;98887.38;;;7.09;68.39
10587;BME280;5341;47.606;7.576;2022-12-07T11:03:11;98889.53;;;7.13;68.18
10587;BME280;5341;47.606;7.576;2022-12-07T11:05:49;98887.72;;;7.14;68.32
10587;BME280;5341;47.606;7.576;2022-12-07T11:08:33;98885.75;;;7.16;67.90
10587;BME280;5341;47.606;7.576;2022-12-07T11:11:09;98875.97;;;7.16;67.63
10587;BME280;5341;47.606;7.576;2022-12-07T11:13:46;98874.81;;;7.19;67.99
10587;BME280;5341;47.606;7.576;2022-12-07T11:16:34;98869.84;;;7.24;67.87
10587;BME280;5341;47.606;7.576;2022-12-07T11:19:22;98872.69;;;7.30;67.93
10587;BME280;5341;47.606;7.576;2022-12-07T11:21:56;98860.75;;;7.34;67.92
10587;BME280;5341;47.606;7.576;2022-12-07T11:24:30;98861.13;;;7.40;67.70
10587;BME280;5341;47.606;7.576;2022-12-07T11:27:09;98857.31;;;7.42;67.94
10587;BME280;5341;47.606;7.576;2022-12-07T11:29:49;98849.81;;;7.46;67.70
10587;BME280;5341;47.606;7.576;2022-12-07T11:32:30;98851.16;;;7.50;67.71
10587;BME280;5341;47.606;7.576;2022-12-07T11:35:08;98836.56;;;7.54;67.74
10587;BME280;5341;47.606;7.576;2022-12-07T11:37:38;98842.06;;;7.60;67.51
10587;BME280;5341;47.606;7.576;2022-12-07T11:40:16;98833.44;;;7.67;67.35
10587;BME280;5341;47.606;7.576;2022-12-07T11:42:51;98829.63;;;7.69;67.10
10587;BME280;5341;47.606;7.576;2022-12-07T11:45:24;98822.28;;;7.71;66.88
10587;BME280;5341;47.606;7.576;2022-12-07T11:47:59;98827.28;;;7.74;66.62
10587;BME280;5341;47.606;7.576;2022-12-07T11:50:34;98821.66;;;7.77;67.08
10587;BME280;5341;47.606;7.576;2022-12-07T11:53:10;98820.50;;;7.80;66.94
10587;BME280;5341;47.606;7.576;2022-12-07T11:55:45;98807.84;;;7.82;66.44
10587;BME280;5341;47.606;7.576;2022-12-07T11:58:23;98812.00;;;7.84;66.85
10587;BME280;5341;47.606;7.576;2022-12-07T12:01:04;98817.16;;;7.86;66.59
10587;BME280;5341;47.606;7.576;2022-12-07T12:03:37;98816.03;;;7.88;66.08
10587;BME280;5341;47.606;7.576;2022-12-07T12:06:08;98812.38;;;7.89;65.77
10587;BME280;5341;47.606;7.576;2022-12-07T12:08:38;98814.69;;;7.92;66.44
10587;BME280;5341;47.606;7.576;2022-12-07T12:11:18;98799.88;;;7.98;65.80
10587;BME280;5341;47.606;7.576;2022-12-07T12:14:08;98800.41;;;8.02;65.86
10587;BME280;5341;47.606;7.576;2022-12-07T12:16:50;98792.06;;;8.05;65.44
10587;BME280;5341;47.606;7.576;2022-12-07T12:19:30;98790.06;;;8.07;65.46
10587;BME280;5341;47.606;7.576;2022-12-07T12:22:06;98782.09;;;8.07;65.77
10587;BME280;5341;47.606;7.576;2022-12-07T12:24:39;98780.91;;;8.09;65.58
10587;BME280;5341;47.606;7.576;2022-12-07T12:27:09;98792.09;;;8.13;65.63
10587;BME280;5341;47.606;7.576;2022-12-07T12:29:43;98789.44;;;8.13;65.49
10587;BME280;5341;47.606;7.576;2022-12-07T12:32:17;98778.44;;;8.16;65.93
10587;BME280;5341;47.606;7.576;2022-12-07T12:35:03;98776.09;;;8.21;65.28
10587;BME280;5341;47.606;7.576;2022-12-07T12:37:48;98776.44;;;8.26;65.22
10587;BME280;5341;47.606;7.576;2022-12-07T12:40:41;98765.94;;;8.33;65.09
10587;BME280;5341;47.606;7.576;2022-12-07T12:43:49;98768.97;;;8.38;65.99
10587;BME280;5341;47.606;7.576;2022-12-07T12:46:46;98764.44;;;8.46;65.14
10587;BME280;5341;47.606;7.576;2022-12-07T12:49:34;98770.47;;;8.48;64.64
10587;BME280;5341;47.606;7.576;2022-12-07T12:55:56;98766.09;;;8.56;64.96
10587;BME280;5341;47.606;7.576;2022-12-07T12:58:36;98761.59;;;8.56;64.69
10587;BME280;5341;47.606;7.576;2022-12-07T13:04:39;98755.59;;;8.62;65.28
10587;BME280;5341;47.606;7.576;2022-12-07T13:10:27;98739.78;;;8.61;64.19
10587;BME280;5341;47.606;7.576;2022-12-07T13:13:00;98754.25;;;8.58;63.86
10587;BME280;5341;47.606;7.576;2022-12-07T13:15:35;98744.78;;;8.56;63.20
10587;BME280;5341;47.606;7.576;2022-12-07T13:18:25;98742.28;;;8.54;63.32
10587;BME280;5341;47.606;7.576;2022-12-07T13:21:02;98744.94;;;8.54;63.28
10587;BME280;5341;47.606;7.576;2022-12-07T13:23:33;98735.94;;;8.55;63.39
10587;BME280;5341;47.606;7.576;2022-12-07T13:26:21;98745.44;;;8.58;63.22
10587;BME280;5341;47.606;7.576;2022-12-07T13:29:11;98738.97;;;8.60;63.24
10587;BME280;5341;47.606;7.576;2022-12-07T13:31:41;98728.94;;;8.62;63.13
10587;BME280;5341;47.606;7.576;2022-12-07T13:34:30;98730.25;;;8.66;62.79
10587;BME280;5341;47.606;7.576;2022-12-07T13:37:09;98730.09;;;8.68;63.00
10587;BME280;5341;47.606;7.576;2022-12-07T13:39:46;98730.75;;;8.70;63.14
10587;BME280;5341;47.606;7.576;2022-12-07T13:42:22;98728.41;;;8.75;63.01
10587;BME280;5341;47.606;7.576;2022-12-07T13:44:52;98721.91;;;8.77;63.12
10587;BME280;5341;47.606;7.576;2022-12-07T13:47:25;98727.72;;;8.81;63.91
10587;BME280;5341;47.606;7.576;2022-12-07T13:49:57;98721.19;;;8.84;63.80
10587;BME280;5341;47.606;7.576;2022-12-07T13:52:26;98716.38;;;8.87;63.88
10587;BME280;5341;47.606;7.576;2022-12-07T13:54:57;98706.19;;;8.91;63.91
10587;BME280;5341;47.606;7.576;2022-12-07T13:57:28;98714.66;;;8.94;64.27
10587;BME280;5341;47.606;7.576;2022-12-07T13:59:57;98712.66;;;8.96;64.46
10587;BME280;5341;47.606;7.576;2022-12-07T14:02:28;98714.00;;;9.00;64.23
10587;BME280;5341;47.606;7.576;2022-12-07T14:05:12;98711.16;;;9.02;64.29
10587;BME280;5341;47.606;7.576;2022-12-07T14:07:52;98711.78;;;9.04;63.68
10587;BME280;5341;47.606;7.576;2022-12-07T14:10:24;98708.78;;;9.07;64.51